sensor_id;sensor_type;location;lat;lon;timestamp;temperature;humidity
32348;DHT22;18821;44.800;10.326;2023-02-19T00:01:20;9.00;1.00
32348;DHT22;18821;44.800;10.326;2023-02-19T00:03:54;9.00;1.00
32348;DHT22;18821;44.800;10.326;2023-02-19T00:06:22;8.80;1.00
32348;DHT22;18821;44.800;10.326;2023-02-19T00:08:49;8.80;1.00
32348;DHT22;18821;44.800;10.326;2023-02-19T00:11:17;8.80;1.00
32348;DHT22;18821;44.800;10.326;2023-02-19T00:13:45;8.80;1.00
32348;DHT22;18821;44.800;10.326;2023-02-19T00:16:16;8.70;1.00
32348;DHT22;18821;44.800;10.326;2023-02-19T00:18:44;8.60;1.00
32348;DHT22;18821;44.800;10.326;2023-02-19T00:21:10;8.50;1.00
32348;DHT22;18821;44.800;10.326;2023-02-19T00:23:37;8.40;1.00
32348;DHT22;18821;44.800;10.326;2023-02-19T00:26:04;8.40;1.00
32348;DHT22;18821;44.800;10.326;2023-02-19T00:28:31;8.40;1.00
32348;DHT22;18821;44.800;10.326;2023-02-19T00:33:31;8.30;1.00
32348;DHT22;18821;44.800;10.326;2023-02-19T00:36:02;8.30;1.00
32348;DHT22;18821;44.800;10.326;2023-02-19T00:38:28;8.20;1.00
32348;DHT22;18821;44.800;10.326;2023-02-19T00:40:54;8.20;1.00
32348;DHT22;18821;44.800;10.326;2023-02-19T00:43:21;8.20;1.00
32348;DHT22;18821;44.800;10.326;2023-02-19T00:45:47;8.00;1.00
32348;DHT22;18821;44.800;10.326;2023-02-19T00:48:13;8.00;1.00
32348;DHT22;18821;44.800;10.326;2023-02-19T00:50:39;7.90;1.00
32348;DHT22;18821;44.800;10.326;2023-02-19T00:53:05;7.90;1.00
32348;DHT22;18821;44.800;10.326;2023-02-19T00:55:31;7.80;1.00
32348;DHT22;18821;44.800;10.326;2023-02-19T00:57:57;7.70;1.00
32348;DHT22;18821;44.800;10.326;2023-02-19T01:00:23;7.60;1.00
32348;DHT22;18821;44.800;10.326;2023-02-19T01:02:49;7.60;1.00
32348;DHT22;18821;44.800;10.326;2023-02-19T01:05:15;7.60;1.00
32348;DHT22;18821;44.800;10.326;2023-02-19T01:07:41;7.60;1.00
32348;DHT22;18821;44.800;10.326;2023-02-19T01:10:07;7.60;1.00
32348;DHT22;18821;44.800;10.326;2023-02-19T01:12:33;7.60;1.00
32348;DHT22;18821;44.800;10.326;2023-02-19T01:14:59;7.50;1.00
32348;DHT22;18821;44.800;10.326;2023-02-19T01:17:25;7.50;1.00
32348;DHT22;18821;44.800;10.326;2023-02-19T01:19:52;7.50;1.00
32348;DHT22;18821;44.800;10.326;2023-02-19T01:22:19;7.50;1.00
32348;DHT22;18821;44.800;10.326;2023-02-19T01:24:45;7.40;1.00
32348;DHT22;18821;44.800;10.326;2023-02-19T01:27:10;7.40;1.00
32348;DHT22;18821;44.800;10.326;2023-02-19T01:29:36;7.40;1.00
32348;DHT22;18821;44.800;10.326;2023-02-19T01:32:02;7.40;1.00
32348;DHT22;18821;44.800;10.326;2023-02-19T01:34:28;7.40;1.00
32348;DHT22;18821;44.800;10.326;2023-02-19T01:36:55;7.30;1.00
32348;DHT22;18821;44.800;10.326;2023-02-19T01:39:21;7.30;1.00
32348;DHT22;18821;44.800;10.326;2023-02-19T01:41:47;7.30;1.00
32348;DHT22;18821;44.800;10.326;2023-02-19T01:46:40;7.40;1.00
32348;DHT22;18821;44.800;10.326;2023-02-19T01:49:32;7.30;1.00
32348;DHT22;18821;44.800;10.326;2023-02-19T01:52:13;7.20;1.00
32348;DHT22;18821;44.800;10.326;2023-02-19T01:54:42;7.30;1.00
32348;DHT22;18821;44.800;10.326;2023-02-19T01:57:14;7.30;1.00
32348;DHT22;18821;44.800;10.326;2023-02-19T01:59:42;7.20;1.00
32348;DHT22;18821;44.800;10.326;2023-02-19T02:02:08;7.10;1.00
32348;DHT22;18821;44.800;10.326;2023-02-19T02:04:35;7.20;1.00
32348;DHT22;18821;44.800;10.326;2023-02-19T02:07:03;7.20;1.00
32348;DHT22;18821;44.800;10.326;2023-02-19T02:09:50;7.20;1.00
32348;DHT22;18821;44.800;10.326;2023-02-19T02:12:35;7.20;1.00
32348;DHT22;18821;44.800;10.326;2023-02-19T02:15:02;7.20;1.00
32348;DHT22;18821;44.800;10.326;2023-02-19T02:17:38;7.10;1.00
32348;DHT22;18821;44.800;10.326;2023-02-19T02:23:08;7.10;1.00
32348;DHT22;18821;44.800;10.326;2023-02-19T02:26:07;7.10;1.00
32348;DHT22;18821;44.800;10.326;2023-02-19T02:34:15;7.20;1.00
32348;DHT22;18821;44.800;10.326;2023-02-19T02:36:46;7.20;1.00
32348;DHT22;18821;44.800;10.326;2023-02-19T02:39:17;7.20;1.00
32348;DHT22;18821;44.800;10.326;2023-02-19T02:41:50;7.20;1.00
32348;DHT22;18821;44.800;10.326;2023-02-19T02:44:42;7.20;1.00
32348;DHT22;18821;44.800;10.326;2023-02-19T02:48:00;7.20;1.00
32348;DHT22;18821;44.800;10.326;2023-02-19T02:50:31;7.20;1.00
32348;DHT22;18821;44.800;10.326;2023-02-19T02:53:01;7.20;1.00
32348;DHT22;18821;44.800;10.326;2023-02-19T02:55:49;7.20;1.00
32348;DHT22;18821;44.800;10.326;2023-02-19T02:58:16;7.10;1.00
32348;DHT22;18821;44.800;10.326;2023-02-19T03:00:48;7.10;1.00
32348;DHT22;18821;44.800;10.326;2023-02-19T03:03:37;7.10;1.00
32348;DHT22;18821;44.800;10.326;2023-02-19T03:06:06;7.10;1.00
32348;DHT22;18821;44.800;10.326;2023-02-19T03:08:41;7.10;1.00
32348;DHT22;18821;44.800;10.326;2023-02-19T03:11:11;7.10;1.00
32348;DHT22;18821;44.800;10.326;2023-02-19T03:14:05;7.00;1.00
32348;DHT22;18821;44.800;10.326;2023-02-19T03:16:57;6.90;1.00
32348;DHT22;18821;44.800;10.326;2023-02-19T03:19:49;6.80;1.00
32348;DHT22;18821;44.800;10.326;2023-02-19T03:22:21;6.80;1.00
32348;DHT22;18821;44.800;10.326;2023-02-19T03:24:53;6.80;1.00
32348;DHT22;18821;44.800;10.326;2023-02-19T03:27:40;6.80;3.40
32348;DHT22;18821;44.800;10.326;2023-02-19T03:30:20;6.80;2.30
32348;DHT22;18821;44.800;10.326;2023-02-19T03:32:51;6.80;1.00
32348;DHT22;18821;44.800;10.326;2023-02-19T03:35:22;6.70;1.10
32348;DHT22;18821;44.800;10.326;2023-02-19T03:40:28;6.80;2.80
32348;DHT22;18821;44.800;10.326;2023-02-19T03:43:04;6.80;1.80
32348;DHT22;18821;44.800;10.326;2023-02-19T03:45:38;6.70;1.50
32348;DHT22;18821;44.800;10.326;2023-02-19T03:50:57;6.80;1.70
32348;DHT22;18821;44.800;10.326;2023-02-19T03:53:36;6.80;1.60
32348;DHT22;18821;44.800;10.326;2023-02-19T03:56:12;6.70;1.20
32348;DHT22;18821;44.800;10.326;2023-02-19T03:58:49;6.70;3.80
32348;DHT22;18821;44.800;10.326;2023-02-19T04:03:54;6.60;4.00
32348;DHT22;18821;44.800;10.326;2023-02-19T04:06:26;6.60;7.40
32348;DHT22;18821;44.800;10.326;2023-02-19T04:08:55;6.60;8.10
32348;DHT22;18821;44.800;10.326;2023-02-19T04:11:24;6.50;8.70
32348;DHT22;18821;44.800;10.326;2023-02-19T04:14:22;6.50;7.10
32348;DHT22;18821;44.800;10.326;2023-02-19T04:16:53;6.50;9.70
32348;DHT22;18821;44.800;10.326;2023-02-19T04:19:23;6.50;11.90
32348;DHT22;18821;44.800;10.326;2023-02-19T04:21:51;6.50;12.80
32348;DHT22;18821;44.800;10.326;2023-02-19T04:24:34;6.50;10.00
32348;DHT22;18821;44.800;10.326;2023-02-19T04:27:03;6.40;10.70
32348;DHT22;18821;44.800;10.326;2023-02-19T04:29:30;6.30;11.10
32348;DHT22;18821;44.800;10.326;2023-02-19T04:31:56;6.30;12.80
32348;DHT22;18821;44.800;10.326;2023-02-19T04:34:22;6.30;14.00
32348;DHT22;18821;44.800;10.326;2023-02-19T04:36:48;6.30;15.60
32348;DHT22;18821;44.800;10.326;2023-02-19T04:39:14;6.30;16.70
32348;DHT22;18821;44.800;10.326;2023-02-19T04:41:40;6.30;17.70
32348;DHT22;18821;44.800;10.326;2023-02-19T04:44:06;6.20;17.40
32348;DHT22;18821;44.800;10.326;2023-02-19T04:46:32;6.20;17.60
32348;DHT22;18821;44.800;10.326;2023-02-19T04:48:58;6.10;15.40
32348;DHT22;18821;44.800;10.326;2023-02-19T04:51:24;6.20;18.50
32348;DHT22;18821;44.800;10.326;2023-02-19T04:53:50;6.20;17.90
32348;DHT22;18821;44.800;10.326;2023-02-19T04:56:16;6.10;18.00
32348;DHT22;18821;44.800;10.326;2023-02-19T04:58:43;6.10;19.30
32348;DHT22;18821;44.800;10.326;2023-02-19T05:01:10;6.10;21.40
32348;DHT22;18821;44.800;10.326;2023-02-19T05:03:36;6.10;19.20
32348;DHT22;18821;44.800;10.326;2023-02-19T05:06:03;6.00;18.80
32348;DHT22;18821;44.800;10.326;2023-02-19T05:08:31;6.00;18.80
32348;DHT22;18821;44.800;10.326;2023-02-19T05:11:01;6.00;19.70
32348;DHT22;18821;44.800;10.326;2023-02-19T05:13:28;5.90;19.50
32348;DHT22;18821;44.800;10.326;2023-02-19T05:15:56;5.90;21.30
32348;DHT22;18821;44.800;10.326;2023-02-19T05:18:23;5.90;21.70
32348;DHT22;18821;44.800;10.326;2023-02-19T05:20:50;5.90;23.80
32348;DHT22;18821;44.800;10.326;2023-02-19T05:23:17;5.90;24.20
32348;DHT22;18821;44.800;10.326;2023-02-19T05:25:43;5.90;24.50
32348;DHT22;18821;44.800;10.326;2023-02-19T05:28:11;5.90;24.60
32348;DHT22;18821;44.800;10.326;2023-02-19T05:30:50;5.90;23.70
32348;DHT22;18821;44.800;10.326;2023-02-19T05:33:18;5.90;27.50
32348;DHT22;18821;44.800;10.326;2023-02-19T05:35:47;6.00;26.30
32348;DHT22;18821;44.800;10.326;2023-02-19T05:38:14;6.00;21.90
32348;DHT22;18821;44.800;10.326;2023-02-19T05:40:40;6.00;22.20
32348;DHT22;18821;44.800;10.326;2023-02-19T05:43:07;6.00;20.90
32348;DHT22;18821;44.800;10.326;2023-02-19T05:45:33;6.00;24.20
32348;DHT22;18821;44.800;10.326;2023-02-19T05:47:59;6.00;22.40
32348;DHT22;18821;44.800;10.326;2023-02-19T05:50:26;6.00;23.10
32348;DHT22;18821;44.800;10.326;2023-02-19T05:52:52;6.00;22.30
32348;DHT22;18821;44.800;10.326;2023-02-19T05:55:18;6.00;20.40
32348;DHT22;18821;44.800;10.326;2023-02-19T05:57:46;5.90;18.80
32348;DHT22;18821;44.800;10.326;2023-02-19T06:00:16;5.80;20.80
32348;DHT22;18821;44.800;10.326;2023-02-19T06:02:43;5.80;21.10
32348;DHT22;18821;44.800;10.326;2023-02-19T06:05:10;5.80;19.60
32348;DHT22;18821;44.800;10.326;2023-02-19T06:07:36;5.80;23.50
32348;DHT22;18821;44.800;10.326;2023-02-19T06:10:05;5.70;23.50
32348;DHT22;18821;44.800;10.326;2023-02-19T06:12:31;5.70;24.60
32348;DHT22;18821;44.800;10.326;2023-02-19T06:14:57;5.70;24.10
32348;DHT22;18821;44.800;10.326;2023-02-19T06:17:24;5.60;26.00
32348;DHT22;18821;44.800;10.326;2023-02-19T06:19:50;5.60;27.40
32348;DHT22;18821;44.800;10.326;2023-02-19T06:22:16;5.60;29.50
32348;DHT22;18821;44.800;10.326;2023-02-19T06:24:42;5.70;29.10
32348;DHT22;18821;44.800;10.326;2023-02-19T06:27:08;5.70;29.00
32348;DHT22;18821;44.800;10.326;2023-02-19T06:29:34;5.70;26.50
32348;DHT22;18821;44.800;10.326;2023-02-19T06:32:04;5.70;25.90
32348;DHT22;18821;44.800;10.326;2023-02-19T06:34:30;5.70;27.00
32348;DHT22;18821;44.800;10.326;2023-02-19T06:36:57;5.80;26.60
32348;DHT22;18821;44.800;10.326;2023-02-19T06:39:24;5.80;27.00
32348;DHT22;18821;44.800;10.326;2023-02-19T06:41:50;5.80;24.90
32348;DHT22;18821;44.800;10.326;2023-02-19T06:44:16;5.90;23.20
32348;DHT22;18821;44.800;10.326;2023-02-19T06:46:42;6.00;21.80
32348;DHT22;18821;44.800;10.326;2023-02-19T06:49:08;6.00;22.60
32348;DHT22;18821;44.800;10.326;2023-02-19T06:51:34;6.00;21.00
32348;DHT22;18821;44.800;10.326;2023-02-19T06:54:00;6.10;18.90
32348;DHT22;18821;44.800;10.326;2023-02-19T06:56:37;6.20;18.30
32348;DHT22;18821;44.800;10.326;2023-02-19T06:59:09;6.20;15.40
32348;DHT22;18821;44.800;10.326;2023-02-19T07:01:36;6.40;15.60
32348;DHT22;18821;44.800;10.326;2023-02-19T07:04:03;6.50;12.80
32348;DHT22;18821;44.800;10.326;2023-02-19T07:06:29;6.60;10.20
32348;DHT22;18821;44.800;10.326;2023-02-19T07:08:57;6.60;7.50
32348;DHT22;18821;44.800;10.326;2023-02-19T07:11:24;6.70;4.40
32348;DHT22;18821;44.800;10.326;2023-02-19T07:13:58;6.80;1.10
32348;DHT22;18821;44.800;10.326;2023-02-19T07:16:25;6.90;1.50
32348;DHT22;18821;44.800;10.326;2023-02-19T07:18:51;7.00;1.00
32348;DHT22;18821;44.800;10.326;2023-02-19T07:21:18;7.00;1.00
32348;DHT22;18821;44.800;10.326;2023-02-19T07:23:44;6.90;1.00
32348;DHT22;18821;44.800;10.326;2023-02-19T07:26:12;7.00;1.00
32348;DHT22;18821;44.800;10.326;2023-02-19T07:28:44;7.00;1.00
32348;DHT22;18821;44.800;10.326;2023-02-19T07:31:10;7.20;1.00
32348;DHT22;18821;44.800;10.326;2023-02-19T07:33:37;7.30;1.00
32348;DHT22;18821;44.800;10.326;2023-02-19T07:36:06;7.40;1.00
32348;DHT22;18821;44.800;10.326;2023-02-19T07:38:32;7.50;1.00
32348;DHT22;18821;44.800;10.326;2023-02-19T07:41:00;7.60;1.00
32348;DHT22;18821;44.800;10.326;2023-02-19T07:43:29;7.70;1.00
32348;DHT22;18821;44.800;10.326;2023-02-19T07:45:55;7.80;1.00
32348;DHT22;18821;44.800;10.326;2023-02-19T07:48:22;8.00;1.00
32348;DHT22;18821;44.800;10.326;2023-02-19T07:50:54;8.10;1.00
32348;DHT22;18821;44.800;10.326;2023-02-19T07:53:21;8.20;1.00
32348;DHT22;18821;44.800;10.326;2023-02-19T07:55:48;8.40;1.00
32348;DHT22;18821;44.800;10.326;2023-02-19T07:58:16;8.50;1.00
32348;DHT22;18821;44.800;10.326;2023-02-19T08:00:42;8.60;1.00
32348;DHT22;18821;44.800;10.326;2023-02-19T08:03:08;8.70;1.00
32348;DHT22;18821;44.800;10.326;2023-02-19T08:05:40;8.90;1.00
32348;DHT22;18821;44.800;10.326;2023-02-19T08:08:12;9.00;1.00
32348;DHT22;18821;44.800;10.326;2023-02-19T08:10:40;9.20;1.00
32348;DHT22;18821;44.800;10.326;2023-02-19T08:13:26;9.50;1.00
32348;DHT22;18821;44.800;10.326;2023-02-19T08:16:09;9.50;1.00
32348;DHT22;18821;44.800;10.326;2023-02-19T08:18:35;9.70;1.00
32348;DHT22;18821;44.800;10.326;2023-02-19T08:21:01;9.90;1.00
32348;DHT22;18821;44.800;10.326;2023-02-19T08:23:29;10.10;1.00
32348;DHT22;18821;44.800;10.326;2023-02-19T08:25:59;10.30;1.00
32348;DHT22;18821;44.800;10.326;2023-02-19T08:28:25;10.60;1.00
32348;DHT22;18821;44.800;10.326;2023-02-19T08:30:51;10.80;1.00
32348;DHT22;18821;44.800;10.326;2023-02-19T08:33:20;11.10;1.00
32348;DHT22;18821;44.800;10.326;2023-02-19T08:35:46;11.40;1.00
32348;DHT22;18821;44.800;10.326;2023-02-19T08:38:14;11.70;1.00
32348;DHT22;18821;44.800;10.326;2023-02-19T08:40:43;11.90;1.00
32348;DHT22;18821;44.800;10.326;2023-02-19T08:43:12;12.10;1.00
32348;DHT22;18821;44.800;10.326;2023-02-19T08:45:42;12.40;1.00
32348;DHT22;18821;44.800;10.326;2023-02-19T08:48:35;12.60;1.00
32348;DHT22;18821;44.800;10.326;2023-02-19T08:51:08;12.90;1.00
32348;DHT22;18821;44.800;10.326;2023-02-19T08:53:36;13.00;1.00
32348;DHT22;18821;44.800;10.326;2023-02-19T08:56:11;13.20;1.00
32348;DHT22;18821;44.800;10.326;2023-02-19T08:58:37;13.40;1.00
32348;DHT22;18821;44.800;10.326;2023-02-19T09:01:23;13.50;1.00
32348;DHT22;18821;44.800;10.326;2023-02-19T09:03:49;13.40;1.00
32348;DHT22;18821;44.800;10.326;2023-02-19T09:06:19;13.40;1.00
32348;DHT22;18821;44.800;10.326;2023-02-19T09:08:45;13.50;1.00
32348;DHT22;18821;44.800;10.326;2023-02-19T09:11:11;13.60;1.00
32348;DHT22;18821;44.800;10.326;2023-02-19T09:13:37;13.60;1.00
32348;DHT22;18821;44.800;10.326;2023-02-19T09:16:04;13.70;1.00
32348;DHT22;18821;44.800;10.326;2023-02-19T09:18:30;13.70;1.00
32348;DHT22;18821;44.800;10.326;2023-02-19T09:20:59;13.30;1.00
32348;DHT22;18821;44.800;10.326;2023-02-19T09:23:25;13.20;1.00
32348;DHT22;18821;44.800;10.326;2023-02-19T09:26:01;13.10;1.00
32348;DHT22;18821;44.800;10.326;2023-02-19T09:28:33;12.90;1.00
32348;DHT22;18821;44.800;10.326;2023-02-19T09:31:06;13.20;1.00
32348;DHT22;18821;44.800;10.326;2023-02-19T09:33:32;13.30;1.00
32348;DHT22;18821;44.800;10.326;2023-02-19T09:35:59;13.10;1.00
32348;DHT22;18821;44.800;10.326;2023-02-19T09:38:28;12.70;1.00
32348;DHT22;18821;44.800;10.326;2023-02-19T09:41:05;12.90;1.00
32348;DHT22;18821;44.800;10.326;2023-02-19T09:43:32;13.00;1.00
32348;DHT22;18821;44.800;10.326;2023-02-19T09:46:07;12.90;1.00
32348;DHT22;18821;44.800;10.326;2023-02-19T09:48:34;13.10;1.00
32348;DHT22;18821;44.800;10.326;2023-02-19T09:51:01;13.20;1.00
32348;DHT22;18821;44.800;10.326;2023-02-19T09:53:40;13.40;1.00
32348;DHT22;18821;44.800;10.326;2023-02-19T09:56:08;13.70;1.00
32348;DHT22;18821;44.800;10.326;2023-02-19T10:01:11;13.90;1.00
32348;DHT22;18821;44.800;10.326;2023-02-19T10:03:39;13.50;1.00
32348;DHT22;18821;44.800;10.326;2023-02-19T10:08:46;13.50;1.00
32348;DHT22;18821;44.800;10.326;2023-02-19T10:11:13;13.50;1.00
32348;DHT22;18821;44.800;10.326;2023-02-19T10:13:53;13.50;1.00
32348;DHT22;18821;44.800;10.326;2023-02-19T10:16:24;13.30;1.00
32348;DHT22;18821;44.800;10.326;2023-02-19T10:18:51;13.50;1.00
32348;DHT22;18821;44.800;10.326;2023-02-19T10:21:21;13.40;1.00
32348;DHT22;18821;44.800;10.326;2023-02-19T10:23:51;13.30;1.00
32348;DHT22;18821;44.800;10.326;2023-02-19T10:26:18;13.40;1.00
32348;DHT22;18821;44.800;10.326;2023-02-19T10:28:44;13.40;1.00
32348;DHT22;18821;44.800;10.326;2023-02-19T10:31:22;13.40;1.00
32348;DHT22;18821;44.800;10.326;2023-02-19T10:33:56;13.50;1.00
32348;DHT22;18821;44.800;10.326;2023-02-19T10:36:36;13.30;1.00
32348;DHT22;18821;44.800;10.326;2023-02-19T10:41:52;13.20;1.00
32348;DHT22;18821;44.800;10.326;2023-02-19T10:44:24;13.20;1.00
32348;DHT22;18821;44.800;10.326;2023-02-19T10:46:54;13.30;1.00
32348;DHT22;18821;44.800;10.326;2023-02-19T10:49:46;13.30;1.00
32348;DHT22;18821;44.800;10.326;2023-02-19T10:52:29;13.30;1.00
32348;DHT22;18821;44.800;10.326;2023-02-19T10:57:50;13.50;1.00
32348;DHT22;18821;44.800;10.326;2023-02-19T11:00:20;13.60;1.00
32348;DHT22;18821;44.800;10.326;2023-02-19T11:02:47;13.60;1.00
32348;DHT22;18821;44.800;10.326;2023-02-19T11:05:18;13.50;1.00
32348;DHT22;18821;44.800;10.326;2023-02-19T11:10:26;13.30;1.00
32348;DHT22;18821;44.800;10.326;2023-02-19T11:12:58;13.20;1.00
32348;DHT22;18821;44.800;10.326;2023-02-19T11:15:30;13.20;1.00
32348;DHT22;18821;44.800;10.326;2023-02-19T11:18:13;13.30;1.00
32348;DHT22;18821;44.800;10.326;2023-02-19T11:20:54;13.70;1.00
32348;DHT22;18821;44.800;10.326;2023-02-19T11:25:57;13.50;1.00
32348;DHT22;18821;44.800;10.326;2023-02-19T11:33:56;13.80;1.00
32348;DHT22;18821;44.800;10.326;2023-02-19T11:36:27;13.90;1.00
32348;DHT22;18821;44.800;10.326;2023-02-19T11:38:54;13.80;1.00
32348;DHT22;18821;44.800;10.326;2023-02-19T11:44:58;14.00;1.00
32348;DHT22;18821;44.800;10.326;2023-02-19T11:55:33;13.60;1.00
32348;DHT22;18821;44.800;10.326;2023-02-19T12:04:03;13.80;1.00
32348;DHT22;18821;44.800;10.326;2023-02-19T12:06:29;13.70;1.00
32348;DHT22;18821;44.800;10.326;2023-02-19T12:26:31;13.90;1.00
32348;DHT22;18821;44.800;10.326;2023-02-19T12:41:05;14.40;1.00
32348;DHT22;18821;44.800;10.326;2023-02-19T12:43:39;14.60;1.00
32348;DHT22;18821;44.800;10.326;2023-02-19T12:46:15;14.20;1.00
32348;DHT22;18821;44.800;10.326;2023-02-19T12:48:45;14.10;1.00
32348;DHT22;18821;44.800;10.326;2023-02-19T12:51:22;13.90;1.00
32348;DHT22;18821;44.800;10.326;2023-02-19T12:59:17;13.50;1.00
32348;DHT22;18821;44.800;10.326;2023-02-19T13:02:02;13.60;1.00
32348;DHT22;18821;44.800;10.326;2023-02-19T13:10:43;13.90;1.00
32348;DHT22;18821;44.800;10.326;2023-02-19T13:13:24;13.90;1.00
32348;DHT22;18821;44.800;10.326;2023-02-19T13:15:54;13.80;1.00
32348;DHT22;18821;44.800;10.326;2023-02-19T13:19:01;13.80;1.00
32348;DHT22;18821;44.800;10.326;2023-02-19T13:21:29;13.90;1.00
32348;DHT22;18821;44.800;10.326;2023-02-19T13:38:00;14.20;1.00
32348;DHT22;18821;44.800;10.326;2023-02-19T13:43:03;14.50;99.90
32348;DHT22;18821;44.800;10.326;2023-02-19T13:45:37;14.60;99.90
32348;DHT22;18821;44.800;10.326;2023-02-19T13:50:49;14.70;99.90
32348;DHT22;18821;44.800;10.326;2023-02-19T13:56:46;14.70;99.90
32348;DHT22;18821;44.800;10.326;2023-02-19T14:04:39;14.50;99.90
32348;DHT22;18821;44.800;10.326;2023-02-19T14:17:27;14.70;99.90
32348;DHT22;18821;44.800;10.326;2023-02-19T14:23:35;14.80;99.90
32348;DHT22;18821;44.800;10.326;2023-02-19T14:25:58;14.90;99.90
32348;DHT22;18821;44.800;10.326;2023-02-19T14:28:43;14.80;99.90
32348;DHT22;18821;44.800;10.326;2023-02-19T14:33:50;15.00;99.90
32348;DHT22;18821;44.800;10.326;2023-02-19T14:39:11;15.10;99.90
32348;DHT22;18821;44.800;10.326;2023-02-19T14:41:41;15.00;99.90
32348;DHT22;18821;44.800;10.326;2023-02-19T14:44:35;14.90;99.90
32348;DHT22;18821;44.800;10.326;2023-02-19T14:47:13;14.90;99.90
32348;DHT22;18821;44.800;10.326;2023-02-19T14:49:41;14.90;99.90
32348;DHT22;18821;44.800;10.326;2023-02-19T14:52:22;15.00;99.90
32348;DHT22;18821;44.800;10.326;2023-02-19T14:55:06;15.00;99.90
32348;DHT22;18821;44.800;10.326;2023-02-19T14:57:44;15.00;99.90
32348;DHT22;18821;44.800;10.326;2023-02-19T15:00:24;14.80;99.90
32348;DHT22;18821;44.800;10.326;2023-02-19T15:02:53;14.60;99.90
32348;DHT22;18821;44.800;10.326;2023-02-19T15:05:33;14.70;99.90
32348;DHT22;18821;44.800;10.326;2023-02-19T15:08:06;14.60;99.90
32348;DHT22;18821;44.800;10.326;2023-02-19T15:10:34;14.60;99.90
32348;DHT22;18821;44.800;10.326;2023-02-19T15:13:06;14.50;99.90
32348;DHT22;18821;44.800;10.326;2023-02-19T15:15:35;14.60;99.90
32348;DHT22;18821;44.800;10.326;2023-02-19T15:18:05;14.50;99.90
32348;DHT22;18821;44.800;10.326;2023-02-19T15:20:33;14.50;99.90
32348;DHT22;18821;44.800;10.326;2023-02-19T15:23:01;14.60;99.90
32348;DHT22;18821;44.800;10.326;2023-02-19T15:25:34;14.50;99.90
32348;DHT22;18821;44.800;10.326;2023-02-19T15:33:21;14.40;99.90
32348;DHT22;18821;44.800;10.326;2023-02-19T15:35:49;14.40;99.90
32348;DHT22;18821;44.800;10.326;2023-02-19T15:38:16;14.30;99.90
32348;DHT22;18821;44.800;10.326;2023-02-19T15:40:44;14.30;1.00
32348;DHT22;18821;44.800;10.326;2023-02-19T15:43:22;14.30;1.00
32348;DHT22;18821;44.800;10.326;2023-02-19T15:45:51;14.20;1.00
32348;DHT22;18821;44.800;10.326;2023-02-19T15:48:25;14.20;1.00
32348;DHT22;18821;44.800;10.326;2023-02-19T15:50:58;14.10;1.00
32348;DHT22;18821;44.800;10.326;2023-02-19T15:53:35;14.00;1.00
32348;DHT22;18821;44.800;10.326;2023-02-19T16:01:02;13.90;1.00
32348;DHT22;18821;44.800;10.326;2023-02-19T16:03:30;13.80;1.00
32348;DHT22;18821;44.800;10.326;2023-02-19T16:06:09;13.80;1.00
32348;DHT22;18821;44.800;10.326;2023-02-19T16:08:40;13.70;1.00
32348;DHT22;18821;44.800;10.326;2023-02-19T16:11:26;13.70;1.00
32348;DHT22;18821;44.800;10.326;2023-02-19T16:16:45;13.60;1.00
32348;DHT22;18821;44.800;10.326;2023-02-19T16:19:12;13.60;1.00
32348;DHT22;18821;44.800;10.326;2023-02-19T16:21:38;13.50;1.00
32348;DHT22;18821;44.800;10.326;2023-02-19T16:24:17;13.50;1.00
32348;DHT22;18821;44.800;10.326;2023-02-19T16:26:45;13.40;1.00
32348;DHT22;18821;44.800;10.326;2023-02-19T16:29:20;13.40;1.00
32348;DHT22;18821;44.800;10.326;2023-02-19T16:31:47;13.30;1.00
32348;DHT22;18821;44.800;10.326;2023-02-19T16:34:25;13.30;1.00
32348;DHT22;18821;44.800;10.326;2023-02-19T16:36:53;13.20;1.00
32348;DHT22;18821;44.800;10.326;2023-02-19T16:39:20;13.20;1.00
32348;DHT22;18821;44.800;10.326;2023-02-19T16:46:57;13.00;1.00
32348;DHT22;18821;44.800;10.326;2023-02-19T16:49:23;12.90;1.00
32348;DHT22;18821;44.800;10.326;2023-02-19T16:51:50;12.80;1.00
32348;DHT22;18821;44.800;10.326;2023-02-19T16:54:17;12.80;1.00
32348;DHT22;18821;44.800;10.326;2023-02-19T16:56:43;12.70;1.00
32348;DHT22;18821;44.800;10.326;2023-02-19T16:59:09;12.70;1.00
32348;DHT22;18821;44.800;10.326;2023-02-19T17:01:36;12.60;1.00
32348;DHT22;18821;44.800;10.326;2023-02-19T17:04:08;12.50;1.00
32348;DHT22;18821;44.800;10.326;2023-02-19T17:06:36;12.50;1.00
32348;DHT22;18821;44.800;10.326;2023-02-19T17:09:07;12.40;1.00
32348;DHT22;18821;44.800;10.326;2023-02-19T17:11:34;12.40;1.00
32348;DHT22;18821;44.800;10.326;2023-02-19T17:14:00;12.30;1.00
32348;DHT22;18821;44.800;10.326;2023-02-19T17:16:29;12.30;1.00
32348;DHT22;18821;44.800;10.326;2023-02-19T17:19:12;12.20;1.00
32348;DHT22;18821;44.800;10.326;2023-02-19T17:21:39;12.20;1.00
32348;DHT22;18821;44.800;10.326;2023-02-19T17:24:06;12.10;1.00
32348;DHT22;18821;44.800;10.326;2023-02-19T17:26:32;12.10;1.00
32348;DHT22;18821;44.800;10.326;2023-02-19T17:29:00;12.10;1.00
32348;DHT22;18821;44.800;10.326;2023-02-19T17:31:27;12.00;1.00
32348;DHT22;18821;44.800;10.326;2023-02-19T17:33:54;12.00;1.00
32348;DHT22;18821;44.800;10.326;2023-02-19T17:36:27;12.00;1.00
32348;DHT22;18821;44.800;10.326;2023-02-19T17:38:56;12.00;1.00
32348;DHT22;18821;44.800;10.326;2023-02-19T17:41:23;12.00;1.00
32348;DHT22;18821;44.800;10.326;2023-02-19T17:43:50;11.90;1.00
32348;DHT22;18821;44.800;10.326;2023-02-19T17:46:18;11.90;1.00
32348;DHT22;18821;44.800;10.326;2023-02-19T17:48:44;11.80;1.00
32348;DHT22;18821;44.800;10.326;2023-02-19T17:51:10;11.80;1.00
32348;DHT22;18821;44.800;10.326;2023-02-19T17:53:36;11.70;1.00
32348;DHT22;18821;44.800;10.326;2023-02-19T17:56:03;11.70;1.00
32348;DHT22;18821;44.800;10.326;2023-02-19T17:58:29;11.70;1.00
32348;DHT22;18821;44.800;10.326;2023-02-19T18:00:55;11.70;1.00
32348;DHT22;18821;44.800;10.326;2023-02-19T18:03:21;11.70;1.00
32348;DHT22;18821;44.800;10.326;2023-02-19T18:05:47;11.70;1.00
32348;DHT22;18821;44.800;10.326;2023-02-19T18:08:13;11.60;1.00
32348;DHT22;18821;44.800;10.326;2023-02-19T18:10:39;11.60;1.00
32348;DHT22;18821;44.800;10.326;2023-02-19T18:13:07;11.50;1.00
32348;DHT22;18821;44.800;10.326;2023-02-19T18:15:33;11.50;1.00
32348;DHT22;18821;44.800;10.326;2023-02-19T18:17:59;11.50;1.00
32348;DHT22;18821;44.800;10.326;2023-02-19T18:20:27;11.40;1.00
32348;DHT22;18821;44.800;10.326;2023-02-19T18:22:54;11.40;1.00
32348;DHT22;18821;44.800;10.326;2023-02-19T18:25:22;11.40;1.50
32348;DHT22;18821;44.800;10.326;2023-02-19T18:27:48;11.40;1.60
32348;DHT22;18821;44.800;10.326;2023-02-19T18:30:15;11.30;2.30
32348;DHT22;18821;44.800;10.326;2023-02-19T18:32:44;11.30;5.20
32348;DHT22;18821;44.800;10.326;2023-02-19T18:35:12;11.30;8.00
32348;DHT22;18821;44.800;10.326;2023-02-19T18:37:38;11.30;8.30
32348;DHT22;18821;44.800;10.326;2023-02-19T18:40:04;11.20;6.90
32348;DHT22;18821;44.800;10.326;2023-02-19T18:42:31;11.20;10.10